Time;durP1;ratioP1;P1;durP2;ratioP2;P2;SDS_P1;SDS_P2;PMS_P1;PMS_P2;Temp;Humidity;BMP_temperature;BMP_pressure;BME280_temperature;BME280_humidity;BME280_pressure;Samples;Min_cycle;Max_cycle;Signal;HPM_P1;HPM_P2
2021/08/03 00:02:09;;;;;;;3.83;2.70;;;21.70;80.10;;;;;;5018734;28;20112;-85
2021/08/03 00:04:42;;;;;;;4.00;2.83;;;21.70;80.20;;;;;;5000812;28;20026;-83
2021/08/03 00:07:13;;;;;;;4.65;3.00;;;21.70;80.20;;;;;;5000606;28;20021;-84
2021/08/03 00:09:40;;;;;;;5.55;3.30;;;21.70;80.50;;;;;;5002240;28;20018;-85
2021/08/03 00:12:12;;;;;;;4.00;2.80;;;21.60;80.60;;;;;;5036569;28;20033;-85
2021/08/03 00:14:46;;;;;;;5.13;3.33;;;21.60;80.60;;;;;;4991685;28;20539;-84
2021/08/03 00:17:17;;;;;;;3.92;3.03;;;21.60;80.90;;;;;;5016634;28;20025;-84
2021/08/03 00:19:44;;;;;;;5.20;3.03;;;21.50;81.00;;;;;;5037673;28;20105;-83
2021/08/03 00:22:10;;;;;;;3.55;2.80;;;21.50;80.80;;;;;;5019953;28;20022;-83
2021/08/03 00:24:36;;;;;;;3.53;2.90;;;21.50;80.90;;;;;;5019416;28;20025;-83
2021/08/03 00:27:04;;;;;;;4.75;3.00;;;21.50;81.00;;;;;;5019661;28;20383;-83
2021/08/03 00:29:30;;;;;;;4.68;2.70;;;21.50;80.80;;;;;;5019658;28;20052;-83
2021/08/03 00:31:56;;;;;;;3.85;2.83;;;21.40;80.70;;;;;;5019418;28;20464;-83
2021/08/03 00:34:22;;;;;;;4.35;3.00;;;21.40;80.70;;;;;;5037417;28;20040;-83
2021/08/03 00:36:48;;;;;;;3.97;3.08;;;21.40;80.80;;;;;;5019960;28;20022;-84
2021/08/03 00:39:14;;;;;;;4.10;2.90;;;21.30;80.80;;;;;;5019323;28;20379;-83
2021/08/03 00:41:48;;;;;;;3.53;3.05;;;21.30;80.90;;;;;;5017837;28;20033;-85
2021/08/03 00:44:14;;;;;;;3.45;2.72;;;21.30;80.40;;;;;;5019613;28;20033;-84
2021/08/03 00:46:42;;;;;;;4.03;3.10;;;21.20;80.60;;;;;;5019495;28;20025;-83
2021/08/03 00:49:08;;;;;;;4.03;3.00;;;21.20;80.80;;;;;;5019631;28;20075;-84
2021/08/03 00:51:36;;;;;;;4.05;3.10;;;21.20;80.90;;;;;;5019048;28;20037;-84
2021/08/03 00:54:01;;;;;;;4.80;3.13;;;21.20;80.90;;;;;;5033055;28;20365;-84
2021/08/03 00:56:28;;;;;;;4.70;2.90;;;21.10;80.90;;;;;;5019303;28;20036;-84
2021/08/03 00:58:54;;;;;;;6.35;3.00;;;21.10;80.80;;;;;;5019636;28;20460;-83
2021/08/03 01:01:20;;;;;;;3.13;2.65;;;21.10;80.70;;;;;;5018738;28;20181;-83
2021/08/03 01:03:46;;;;;;;3.33;2.90;;;21.10;80.80;;;;;;5018960;28;20033;-84
2021/08/03 01:06:24;;;;;;;4.35;2.90;;;21.20;81.00;;;;;;5035089;28;20069;-84
2021/08/03 01:09:23;;;;;;;4.00;2.88;;;21.10;80.50;;;;;;5018861;28;20169;-84
2021/08/03 01:11:51;;;;;;;3.47;2.88;;;21.10;80.90;;;;;;5007913;28;20034;-84
2021/08/03 01:14:27;;;;;;;3.58;2.63;;;21.10;80.90;;;;;;4999327;28;20472;-84
2021/08/03 01:17:04;;;;;;;4.00;2.40;;;21.10;80.70;;;;;;4999472;28;20155;-85
2021/08/03 01:19:58;;;;;;;2.95;2.28;;;21.10;80.30;;;;;;4999523;28;20030;-85
2021/08/03 01:22:42;;;;;;;3.38;2.20;;;21.10;78.30;;;;;;4999122;28;20034;-84
2021/08/03 01:25:38;;;;;;;2.10;1.90;;;21.10;79.30;;;;;;4998771;28;20030;-86
2021/08/03 01:28:36;;;;;;;2.53;1.80;;;21.10;78.00;;;;;;4998379;28;20112;-85
2021/08/03 01:31:19;;;;;;;2.85;2.25;;;21.20;77.80;;;;;;4998300;28;20037;-84
2021/08/03 01:33:49;;;;;;;3.90;2.20;;;21.20;75.40;;;;;;4998317;28;20037;-84
2021/08/03 01:36:17;;;;;;;3.15;2.17;;;21.20;76.50;;;;;;5016502;28;20029;-85
2021/08/03 01:38:45;;;;;;;2.92;2.20;;;21.30;76.10;;;;;;5014957;28;20034;-84
2021/08/03 01:41:15;;;;;;;2.08;1.70;;;21.30;75.70;;;;;;4998821;28;20072;-84
2021/08/03 01:43:42;;;;;;;3.13;2.00;;;21.30;75.20;;;;;;4999058;28;20026;-84
2021/08/03 01:46:10;;;;;;;3.22;1.55;;;21.30;75.40;;;;;;4998689;28;20030;-84
2021/08/03 01:48:37;;;;;;;2.72;1.80;;;21.40;75.30;;;;;;4998548;28;20034;-84
2021/08/03 01:51:03;;;;;;;1.70;1.60;;;21.30;75.20;;;;;;5014924;28;20464;-83
2021/08/03 01:53:29;;;;;;;2.50;1.50;;;21.30;75.10;;;;;;5015940;28;20029;-83
2021/08/03 01:55:57;;;;;;;1.65;1.40;;;21.30;75.20;;;;;;5015773;28;20022;-85
2021/08/03 01:58:24;;;;;;;1.95;1.40;;;21.30;75.20;;;;;;4999028;28;20084;-85
2021/08/03 02:00:51;;;;;;;2.95;1.90;;;21.30;75.40;;;;;;4997845;28;20030;-85
2021/08/03 02:03:20;;;;;;;2.35;1.92;;;21.30;75.20;;;;;;4998314;28;20022;-85
2021/08/03 02:05:47;;;;;;;2.25;2.05;;;21.30;75.10;;;;;;4998354;28;20443;-85
2021/08/03 02:08:16;;;;;;;1.90;1.70;;;21.30;75.00;;;;;;5022000;28;20029;-84
2021/08/03 02:10:42;;;;;;;2.38;1.73;;;21.30;75.00;;;;;;5025264;28;20164;-84
2021/08/03 02:13:08;;;;;;;1.90;1.50;;;21.30;75.00;;;;;;4997491;28;20034;-84
2021/08/03 02:15:34;;;;;;;4.32;1.77;;;21.20;75.10;;;;;;5015285;28;20392;-84
2021/08/03 02:18:00;;;;;;;1.35;1.25;;;21.20;74.90;;;;;;5014084;28;20030;-85
2021/08/03 02:20:26;;;;;;;1.92;1.60;;;21.20;75.10;;;;;;5014398;28;20037;-84
2021/08/03 02:22:52;;;;;;;1.70;1.60;;;21.20;75.30;;;;;;4997125;28;20034;-84
2021/08/03 02:25:18;;;;;;;2.78;2.30;;;21.20;75.00;;;;;;5014341;28;20476;-84
2021/08/03 02:27:44;;;;;;;2.33;2.05;;;21.20;75.60;;;;;;4979232;28;20041;-84
2021/08/03 02:30:11;;;;;;;2.72;2.28;;;21.20;74.90;;;;;;4977604;28;20027;-84
2021/08/03 02:32:53;;;;;;;2.13;1.58;;;21.20;74.90;;;;;;4987797;28;20037;-84
2021/08/03 02:35:30;;;;;;;1.80;1.70;;;21.20;75.20;;;;;;4995470;28;20038;-85
2021/08/03 02:38:00;;;;;;;2.42;1.90;;;21.20;74.90;;;;;;4994194;28;20022;-82
2021/08/03 02:40:26;;;;;;;3.13;2.15;;;21.10;75.00;;;;;;4994528;28;20030;-84
2021/08/03 02:42:54;;;;;;;1.95;1.75;;;21.10;75.00;;;;;;4993799;28;20034;-83
2021/08/03 02:45:20;;;;;;;2.28;1.90;;;21.10;74.90;;;;;;4994854;28;20366;-85
2021/08/03 02:47:53;;;;;;;1.58;1.48;;;21.10;75.10;;;;;;4978166;28;20029;-85
2021/08/03 02:50:21;;;;;;;1.70;1.40;;;21.00;75.30;;;;;;4994572;28;20077;-85
2021/08/03 02:52:51;;;;;;;3.65;1.50;;;21.00;75.10;;;;;;4993384;28;20073;-85
2021/08/03 02:55:21;;;;;;;2.55;1.80;;;21.10;75.10;;;;;;4994570;28;20069;-85
2021/08/03 02:57:58;;;;;;;2.05;1.80;;;21.10;75.10;;;;;;4977815;28;20035;-84
2021/08/03 03:00:25;;;;;;;1.83;1.70;;;21.00;74.90;;;;;;4995246;28;20030;-84
2021/08/03 03:02:51;;;;;;;2.47;1.42;;;21.00;75.10;;;;;;4977242;28;20473;-84
2021/08/03 03:05:28;;;;;;;2.65;1.85;;;21.00;75.30;;;;;;4977462;28;20049;-84
2021/08/03 03:08:05;;;;;;;2.58;1.30;;;21.00;75.40;;;;;;5032606;28;20079;-84
2021/08/03 03:10:35;;;;;;;3.00;1.63;;;20.90;75.80;;;;;;5012125;28;20025;-84
2021/08/03 03:13:05;;;;;;;1.73;1.50;;;20.80;76.40;;;;;;5016532;28;20029;-85
2021/08/03 03:15:32;;;;;;;3.53;2.00;;;20.70;77.20;;;;;;5015426;28;20041;-84
2021/08/03 03:17:58;;;;;;;2.20;1.40;;;20.60;78.30;;;;;;5016448;28;20025;-84
2021/08/03 03:20:24;;;;;;;1.90;1.70;;;20.50;78.60;;;;;;5034024;28;20026;-85
2021/08/03 03:22:53;;;;;;;2.83;2.00;;;20.50;79.30;;;;;;5016335;28;20529;-85
2021/08/03 03:25:22;;;;;;;2.00;1.67;;;20.40;79.80;;;;;;5032705;28;20147;-85
2021/08/03 03:27:50;;;;;;;3.15;1.60;;;20.40;80.30;;;;;;5016160;28;20360;-85
2021/08/03 03:30:17;;;;;;;2.45;1.95;;;20.40;80.90;;;;;;5016505;28;20034;-85
2021/08/03 03:32:45;;;;;;;1.83;1.73;;;20.40;81.70;;;;;;5033323;28;20072;-84
2021/08/03 03:35:13;;;;;;;1.50;1.23;;;20.40;81.80;;;;;;5016238;28;20084;-85
2021/08/03 03:37:44;;;;;;;1.60;1.50;;;20.40;81.50;;;;;;5016211;28;20021;-85
2021/08/03 03:40:13;;;;;;;1.92;1.60;;;20.40;81.60;;;;;;5016123;28;20467;-84
2021/08/03 03:42:40;;;;;;;1.90;1.80;;;20.40;82.10;;;;;;5015663;28;20060;-84
2021/08/03 03:45:08;;;;;;;1.92;1.75;;;20.40;82.60;;;;;;5015924;28;20029;-85
2021/08/03 03:47:37;;;;;;;1.55;1.40;;;20.40;82.60;;;;;;5015563;28;20029;-84
2021/08/03 03:50:14;;;;;;;2.00;1.70;;;20.50;82.30;;;;;;5015869;28;20463;-84
2021/08/03 03:52:52;;;;;;;2.50;1.58;;;20.50;82.40;;;;;;5015749;28;20029;-84
2021/08/03 03:55:20;;;;;;;1.70;1.60;;;20.50;83.10;;;;;;5015545;28;20099;-84
2021/08/03 03:57:48;;;;;;;1.80;1.60;;;20.50;83.20;;;;;;5015778;28;20383;-84
2021/08/03 04:00:18;;;;;;;1.80;1.30;;;20.50;83.00;;;;;;5031369;28;20428;-84
2021/08/03 04:02:46;;;;;;;1.60;1.50;;;20.60;82.70;;;;;;5015724;28;20030;-84
2021/08/03 04:05:14;;;;;;;1.48;1.38;;;20.70;82.40;;;;;;5015750;28;20038;-84
2021/08/03 04:07:41;;;;;;;2.28;2.00;;;20.60;82.30;;;;;;5034016;28;20029;-84
2021/08/03 04:10:10;;;;;;;1.83;1.63;;;20.60;82.10;;;;;;5033481;28;20474;-83
2021/08/03 04:12:37;;;;;;;2.30;1.90;;;20.60;82.10;;;;;;4999366;28;20578;-85
2021/08/03 04:15:06;;;;;;;2.05;1.60;;;20.60;83.00;;;;;;5032885;28;20098;-85
2021/08/03 04:17:32;;;;;;;1.90;1.65;;;20.70;83.20;;;;;;4999015;28;20029;-84
2021/08/03 04:19:59;;;;;;;2.63;1.60;;;20.70;83.10;;;;;;5033175;28;20041;-84
2021/08/03 04:22:26;;;;;;;1.90;1.40;;;20.80;82.30;;;;;;5015020;28;20119;-84
2021/08/03 04:24:52;;;;;;;2.33;1.70;;;20.90;81.90;;;;;;5015792;28;20473;-83
2021/08/03 04:27:18;;;;;;;1.60;1.50;;;21.00;82.00;;;;;;5015859;28;20028;-84
2021/08/03 04:29:45;;;;;;;2.15;1.70;;;21.00;81.70;;;;;;5033032;28;20460;-84
2021/08/03 04:32:10;;;;;;;1.83;1.52;;;21.10;81.90;;;;;;5032874;28;20025;-83
2021/08/03 04:34:36;;;;;;;1.70;1.60;;;21.10;81.30;;;;;;5032434;28;20088;-83
2021/08/03 04:37:02;;;;;;;1.75;1.42;;;21.20;81.10;;;;;;4998974;28;20030;-84
2021/08/03 04:39:29;;;;;;;2.40;1.70;;;21.30;81.50;;;;;;5014214;28;20118;-85
2021/08/03 04:41:56;;;;;;;2.67;1.80;;;21.40;81.30;;;;;;5034731;28;20033;-86
2021/08/03 04:44:22;;;;;;;2.78;1.85;;;21.50;81.20;;;;;;5018730;28;20025;-84
2021/08/03 04:46:48;;;;;;;1.95;1.75;;;21.60;80.80;;;;;;5018782;28;20037;-84
2021/08/03 04:49:13;;;;;;;1.55;1.40;;;21.70;80.80;;;;;;5008558;28;20409;-85
2021/08/03 04:51:39;;;;;;;2.05;1.70;;;21.90;80.20;;;;;;5029163;28;20033;-85
2021/08/03 04:54:06;;;;;;;2.78;2.00;;;22.00;79.40;;;;;;5018455;28;20379;-84
2021/08/03 04:56:32;;;;;;;1.83;1.70;;;22.00;78.60;;;;;;5037595;28;20367;-84
2021/08/03 04:59:03;;;;;;;2.75;2.53;;;22.10;78.00;;;;;;5023994;28;20079;-93
2021/08/03 05:01:30;;;;;;;3.50;1.90;;;22.10;77.00;;;;;;5020686;28;20041;-89
2021/08/03 05:03:56;;;;;;;2.17;1.77;;;22.10;76.70;;;;;;5003496;28;20416;-88
2021/08/03 05:06:22;;;;;;;1.70;1.52;;;22.10;76.50;;;;;;5038046;28;20088;-87
2021/08/03 05:08:54;;;;;;;1.60;1.50;;;22.20;76.60;;;;;;5036763;28;20033;-87
2021/08/03 05:11:23;;;;;;;2.03;1.77;;;22.20;75.80;;;;;;5019657;28;20517;-88
2021/08/03 05:13:48;;;;;;;2.15;1.63;;;22.20;75.40;;;;;;5007717;28;20412;-94
2021/08/03 05:16:14;;;;;;;2.05;1.70;;;22.30;75.60;;;;;;5022019;28;20037;-95
2021/08/03 05:18:44;;;;;;;4.93;2.05;;;22.40;75.00;;;;;;5023955;28;20036;-95
2021/08/03 05:21:09;;;;;;;3.55;2.17;;;22.40;74.40;;;;;;5040056;28;20036;-94
2021/08/03 05:23:35;;;;;;;3.22;2.08;;;22.40;74.30;;;;;;5021613;28;20030;-91
2021/08/03 05:26:01;;;;;;;2.72;1.70;;;22.40;73.90;;;;;;5019756;28;20163;-91
2021/08/03 05:28:28;;;;;;;3.50;2.20;;;22.50;73.60;;;;;;5038012;28;20037;-93
2021/08/03 05:30:53;;;;;;;3.35;2.00;;;22.50;73.20;;;;;;5021036;28;20025;-82
2021/08/03 05:33:19;;;;;;;2.10;1.58;;;22.60;73.40;;;;;;5039119;28;20151;-92
2021/08/03 05:35:45;;;;;;;2.47;1.80;;;22.70;73.10;;;;;;5002815;28;20045;-85
2021/08/03 05:38:11;;;;;;;2.85;1.63;;;22.70;72.90;;;;;;5035867;28;20028;-84
2021/08/03 05:40:37;;;;;;;1.92;1.50;;;22.70;72.70;;;;;;5017841;28;20036;-93
2021/08/03 05:43:03;;;;;;;2.97;1.63;;;22.70;72.50;;;;;;5004082;28;20032;-91
2021/08/03 05:45:29;;;;;;;2.05;1.60;;;22.70;72.40;;;;;;5036349;28;20080;-84
2021/08/03 05:47:55;;;;;;;2.47;1.77;;;22.70;72.20;;;;;;5017527;28;20033;-85
2021/08/03 05:50:21;;;;;;;1.50;1.35;;;22.60;72.10;;;;;;5034989;28;20099;-85
2021/08/03 05:52:46;;;;;;;1.95;1.75;;;22.50;72.00;;;;;;5035419;28;20102;-85
2021/08/03 05:55:12;;;;;;;1.70;1.60;;;22.50;72.30;;;;;;5035375;28;20026;-86
2021/08/03 05:57:38;;;;;;;1.75;1.63;;;22.60;72.30;;;;;;5035267;28;20025;-85
2021/08/03 06:00:05;;;;;;;2.15;1.85;;;22.60;72.00;;;;;;5035097;28;20032;-84
2021/08/03 06:02:31;;;;;;;4.30;2.05;;;22.60;71.80;;;;;;5033060;28;20087;-84
2021/08/03 06:04:56;;;;;;;2.42;2.08;;;22.70;71.70;;;;;;5016486;28;20498;-83
2021/08/03 06:07:28;;;;;;;1.92;1.75;;;22.80;71.20;;;;;;5016693;28;20124;-83
2021/08/03 06:09:57;;;;;;;2.40;1.88;;;22.80;70.90;;;;;;5017346;28;20460;-83
2021/08/03 06:12:25;;;;;;;2.42;2.22;;;22.80;70.90;;;;;;5017233;28;20036;-83
2021/08/03 06:14:54;;;;;;;3.90;3.08;;;22.80;70.50;;;;;;5015469;28;20136;-83
2021/08/03 06:17:24;;;;;;;3.80;2.65;;;22.90;69.80;;;;;;5014982;28;20029;-85
2021/08/03 06:19:51;;;;;;;2.72;2.03;;;22.90;70.20;;;;;;5032725;28;20057;-85
2021/08/03 06:22:18;;;;;;;3.05;2.15;;;23.10;70.20;;;;;;5014906;28;20510;-83
2021/08/03 06:24:47;;;;;;;3.90;2.40;;;23.20;69.60;;;;;;5014723;28;20036;-84
2021/08/03 06:27:15;;;;;;;2.07;1.87;;;23.30;68.90;;;;;;5014756;28;20021;-85
2021/08/03 06:29:41;;;;;;;2.38;2.10;;;23.30;69.30;;;;;;5015678;28;20029;-84
2021/08/03 06:32:11;;;;;;;2.75;1.80;;;23.40;68.60;;;;;;5016952;28;20121;-84
2021/08/03 06:34:39;;;;;;;2.30;2.10;;;23.40;68.50;;;;;;5034372;28;20100;-84
2021/08/03 06:37:06;;;;;;;2.55;1.90;;;23.60;68.50;;;;;;5034976;28;20045;-84
2021/08/03 06:39:32;;;;;;;2.97;2.17;;;23.70;68.30;;;;;;5034684;28;20471;-84
2021/08/03 06:42:24;;;;;;;2.10;1.85;;;23.70;67.90;;;;;;5016729;28;20053;-84
2021/08/03 06:45:14;;;;;;;2.10;1.90;;;23.70;65.00;;;;;;5015277;28;20036;-85
2021/08/03 06:47:54;;;;;;;2.42;2.05;;;23.70;66.80;;;;;;5008738;28;20033;-83
2021/08/03 06:50:25;;;;;;;2.08;1.77;;;23.70;65.60;;;;;;5008322;28;20030;-84
2021/08/03 06:52:54;;;;;;;2.08;1.80;;;23.70;66.40;;;;;;5017912;28;20076;-84
2021/08/03 06:55:27;;;;;;;2.00;1.80;;;23.70;66.90;;;;;;5003655;28;20468;-84
2021/08/03 06:57:58;;;;;;;6.03;2.00;;;23.70;66.40;;;;;;5034049;28;20021;-84
2021/08/03 07:00:25;;;;;;;1.88;1.70;;;23.70;66.80;;;;;;5016359;28;20030;-84
2021/08/03 07:02:52;;;;;;;2.30;2.10;;;23.70;66.90;;;;;;5033924;28;20111;-84
2021/08/03 07:05:23;;;;;;;2.53;1.77;;;23.80;66.90;;;;;;5008443;28;20079;-83
2021/08/03 07:07:55;;;;;;;2.50;1.90;;;23.80;66.40;;;;;;5014832;28;20567;-83
2021/08/03 07:10:20;;;;;;;3.35;1.77;;;23.80;66.20;;;;;;4996840;28;20488;-83
2021/08/03 07:12:46;;;;;;;2.10;1.52;;;23.90;66.10;;;;;;5014481;28;20030;-84
2021/08/03 07:15:12;;;;;;;1.27;1.23;;;24.00;65.90;;;;;;5014437;28;20523;-84
2021/08/03 07:17:41;;;;;;;1.70;1.50;;;24.20;64.90;;;;;;5014400;28;20026;-84
2021/08/03 07:20:09;;;;;;;2.03;1.58;;;24.40;64.30;;;;;;5014172;28;20049;-84
2021/08/03 07:22:36;;;;;;;1.98;1.65;;;24.50;64.00;;;;;;4996152;28;20030;-84
2021/08/03 07:25:03;;;;;;;1.50;1.20;;;24.50;63.20;;;;;;5014213;28;20030;-84
2021/08/03 07:27:29;;;;;;;1.85;1.00;;;24.60;63.00;;;;;;4996574;28;20026;-85
2021/08/03 07:29:55;;;;;;;2.17;1.98;;;24.50;62.70;;;;;;4999301;28;20030;-84
2021/08/03 07:32:21;;;;;;;2.00;1.58;;;24.50;62.60;;;;;;5016420;28;20125;-83
2021/08/03 07:34:47;;;;;;;1.60;1.50;;;24.50;62.80;;;;;;5015973;28;20048;-84
2021/08/03 07:37:12;;;;;;;2.13;1.65;;;24.50;62.50;;;;;;5015997;28;20051;-84
2021/08/03 07:39:39;;;;;;;1.83;1.60;;;24.60;62.30;;;;;;5033375;28;20383;-84
2021/08/03 07:42:07;;;;;;;1.70;1.38;;;24.70;62.10;;;;;;5033625;28;20018;-83
2021/08/03 07:44:33;;;;;;;1.60;1.50;;;24.90;61.80;;;;;;5015833;28;20071;-83
2021/08/03 07:46:59;;;;;;;1.75;1.42;;;25.00;61.40;;;;;;5015933;28;20452;-85
2021/08/03 07:49:25;;;;;;;2.20;1.85;;;25.10;61.30;;;;;;5032703;28;20032;-84
2021/08/03 07:51:52;;;;;;;2.33;1.80;;;25.20;61.10;;;;;;5017445;28;20022;-84
2021/08/03 07:54:18;;;;;;;1.80;1.50;;;25.20;60.90;;;;;;5033308;28;20108;-84
2021/08/03 07:56:44;;;;;;;2.30;1.65;;;25.20;60.70;;;;;;5015642;28;20041;-84
2021/08/03 07:59:09;;;;;;;1.98;1.70;;;25.30;60.70;;;;;;5015276;28;20021;-83
2021/08/03 08:01:36;;;;;;;1.70;1.60;;;25.30;60.50;;;;;;5033511;28;20360;-83
2021/08/03 08:04:02;;;;;;;3.22;2.10;;;25.40;60.40;;;;;;5013384;28;20398;-83
2021/08/03 08:06:27;;;;;;;2.33;2.05;;;25.40;60.30;;;;;;5012943;28;20033;-83
2021/08/03 08:08:53;;;;;;;6.35;2.80;;;25.50;59.90;;;;;;5015857;28;20430;-82
2021/08/03 08:11:19;;;;;;;3.45;2.30;;;25.60;59.60;;;;;;4996116;28;20468;-82
2021/08/03 08:13:45;;;;;;;2.40;1.92;;;25.70;60.30;;;;;;5000987;28;20510;-83
2021/08/03 08:16:11;;;;;;;2.50;2.10;;;26.00;61.00;;;;;;5015016;28;20033;-84
2021/08/03 08:18:36;;;;;;;3.40;2.33;;;26.30;61.70;;;;;;4997139;28;20030;-84
2021/08/03 08:21:03;;;;;;;2.63;2.08;;;26.60;61.40;;;;;;5005929;28;20032;-85
2021/08/03 08:23:29;;;;;;;2.05;1.73;;;27.00;61.30;;;;;;5014441;28;20030;-85
2021/08/03 08:25:55;;;;;;;2.40;1.98;;;27.40;61.60;;;;;;5005661;28;20030;-85
2021/08/03 08:28:21;;;;;;;2.60;1.85;;;27.80;61.10;;;;;;4982221;28;20504;-84
2021/08/03 08:30:47;;;;;;;2.50;2.03;;;28.30;60.60;;;;;;4980147;28;20026;-84
2021/08/03 08:33:13;;;;;;;3.33;1.77;;;28.70;60.00;;;;;;4995404;28;20037;-84
2021/08/03 08:35:39;;;;;;;2.17;1.92;;;29.10;59.40;;;;;;4974304;28;20038;-84
2021/08/03 08:38:06;;;;;;;2.10;1.65;;;29.50;58.80;;;;;;4980313;28;20038;-84
2021/08/03 08:40:32;;;;;;;2.40;2.10;;;29.90;57.30;;;;;;4979742;28;20030;-84
2021/08/03 08:42:58;;;;;;;2.88;2.58;;;30.20;56.60;;;;;;4997311;28;20026;-84
2021/08/03 08:45:24;;;;;;;10.45;8.27;;;30.30;55.30;;;;;;4997256;28;20041;-87
2021/08/03 08:47:50;;;;;;;7.25;6.38;;;30.50;55.00;;;;;;4995934;28;20100;-87
2021/08/03 08:50:21;;;;;;;67.47;60.15;;;30.70;54.50;;;;;;4997360;28;20426;-87
2021/08/03 08:52:53;;;;;;;28.92;26.05;;;31.00;54.00;;;;;;5021259;28;20475;-89
2021/08/03 08:55:20;;;;;;;11.48;10.35;;;31.30;53.70;;;;;;5025162;28;21513;-85
2021/08/03 08:57:51;;;;;;;6.45;5.50;;;31.50;53.10;;;;;;4996401;28;20384;-84
2021/08/03 09:00:19;;;;;;;4.28;3.60;;;31.60;52.20;;;;;;4996865;28;20030;-85
2021/08/03 09:02:53;;;;;;;3.85;2.40;;;31.90;52.00;;;;;;4997456;28;20028;-85
2021/08/03 09:05:33;;;;;;;2.50;2.30;;;32.20;50.60;;;;;;5016097;28;20030;-84
2021/08/03 09:08:02;;;;;;;2.30;2.10;;;32.40;46.20;;;;;;4991431;28;20113;-84
2021/08/03 09:10:31;;;;;;;1.90;1.80;;;32.50;50.70;;;;;;5011884;28;20033;-85
2021/08/03 09:13:12;;;;;;;2.50;2.20;;;32.60;50.10;;;;;;5010082;28;20037;-86
2021/08/03 09:15:43;;;;;;;3.22;1.98;;;32.80;47.00;;;;;;4992308;28;20092;-84
2021/08/03 09:18:30;;;;;;;2.42;2.22;;;32.90;49.40;;;;;;4998879;28;20109;-83
2021/08/03 09:20:58;;;;;;;2.20;2.00;;;33.10;48.80;;;;;;5000476;28;20021;-84
2021/08/03 09:23:46;;;;;;;2.25;2.05;;;33.20;48.50;;;;;;5015937;28;20029;-85
2021/08/03 09:26:15;;;;;;;2.42;2.17;;;33.20;43.10;;;;;;4992161;28;20401;-86
2021/08/03 09:29:02;;;;;;;2.50;1.90;;;32.70;47.20;;;;;;5014235;28;20022;-85
2021/08/03 09:31:29;;;;;;;3.92;2.35;;;32.30;44.90;;;;;;5015954;28;20028;-84
2021/08/03 09:33:55;;;;;;;6.63;5.18;;;32.30;48.30;;;;;;4998371;28;20033;-87
2021/08/03 09:36:45;;;;;;;18.90;16.98;;;32.50;48.10;;;;;;4990106;28;20026;-86
2021/08/03 09:39:39;;;;;;;8.15;6.43;;;32.90;44.00;;;;;;4998173;28;20053;-85
2021/08/03 09:42:10;;;;;;;4.20;3.80;;;33.20;43.00;;;;;;4999395;28;20022;-85
2021/08/03 09:44:44;;;;;;;7.05;6.15;;;33.30;46.30;;;;;;5015893;28;20026;-92
2021/08/03 09:47:13;;;;;;;4.00;3.30;;;33.20;45.70;;;;;;4998026;28;20101;-85
2021/08/03 09:49:41;;;;;;;3.25;2.90;;;33.10;46.00;;;;;;5015419;28;20070;-85
2021/08/03 09:52:12;;;;;;;3.00;2.53;;;33.10;45.30;;;;;;4997922;28;20480;-85
2021/08/03 09:54:39;;;;;;;2.75;2.30;;;32.90;45.00;;;;;;4997770;28;20038;-85
2021/08/03 09:57:21;;;;;;;2.83;2.10;;;32.80;45.50;;;;;;4997775;28;20037;-86
2021/08/03 09:59:48;;;;;;;1.80;1.70;;;32.90;43.60;;;;;;5015320;28;20025;-85
2021/08/03 10:02:17;;;;;;;2.10;1.90;;;33.10;45.50;;;;;;4997293;28;20026;-81
2021/08/03 10:04:51;;;;;;;43.08;38.50;;;33.50;45.10;;;;;;4999360;28;20089;-90
2021/08/03 10:07:18;;;;;;;25.17;22.67;;;33.90;44.60;;;;;;5020867;28;20049;-83
2021/08/03 10:09:45;;;;;;;12.15;10.50;;;34.10;44.30;;;;;;4997537;28;20122;-82
2021/08/03 10:12:12;;;;;;;6.43;5.82;;;34.30;43.60;;;;;;4997178;28;20054;-83
2021/08/03 10:14:38;;;;;;;4.30;3.90;;;34.20;43.40;;;;;;4997012;28;20057;-85
2021/08/03 10:17:10;;;;;;;3.72;3.03;;;33.90;43.10;;;;;;4997594;28;20030;-83
2021/08/03 10:19:38;;;;;;;2.92;2.60;;;33.60;43.40;;;;;;4997583;28;20025;-83
2021/08/03 10:22:10;;;;;;;2.20;2.00;;;33.60;43.70;;;;;;4997162;28;20025;-84
2021/08/03 10:25:06;;;;;;;1.80;1.70;;;33.90;43.60;;;;;;4997033;28;20029;-83
2021/08/03 10:27:49;;;;;;;2.17;1.90;;;34.10;41.30;;;;;;4996832;28;20026;-81
2021/08/03 10:30:30;;;;;;;2.78;1.80;;;34.20;40.40;;;;;;4997112;28;20034;-86
2021/08/03 10:33:00;;;;;;;3.00;2.08;;;34.30;39.90;;;;;;5015095;28;20487;-83
2021/08/03 10:35:46;;;;;;;2.53;2.00;;;34.50;41.80;;;;;;5014920;28;20030;-83
2021/08/03 10:38:32;;;;;;;1.70;1.60;;;34.70;38.30;;;;;;4997701;28;20034;-83
2021/08/03 10:41:16;;;;;;;2.97;1.58;;;34.90;38.90;;;;;;4996803;28;20037;-82
2021/08/03 10:43:48;;;;;;;2.08;1.67;;;35.20;38.80;;;;;;4997530;28;20468;-83
2021/08/03 10:46:14;;;;;;;2.83;1.70;;;35.40;40.90;;;;;;5001987;28;20021;-83
2021/08/03 10:48:39;;;;;;;2.38;1.40;;;35.60;40.60;;;;;;5032522;28;20025;-83
2021/08/03 10:51:17;;;;;;;1.88;1.58;;;35.90;40.30;;;;;;5016558;28;20026;-82
2021/08/03 10:53:51;;;;;;;2.67;1.88;;;36.10;37.00;;;;;;5016388;28;20120;-83
2021/08/03 10:56:20;;;;;;;1.85;1.73;;;36.20;39.30;;;;;;5034005;28;20181;-82
2021/08/03 10:58:46;;;;;;;;;;;36.20;39.30;;;;;;5033559;28;20096;-84
2021/08/03 11:01:45;;;;;;;2.00;1.55;;;35.80;37.60;;;;;;5013786;28;20000;-83
2021/08/03 11:04:46;;;;;;;2.33;1.58;;;35.50;36.40;;;;;;5013816;28;20491;-83
2021/08/03 11:07:27;;;;;;;3.38;1.80;;;35.30;37.40;;;;;;5014036;28;20305;-83
2021/08/03 11:09:54;;;;;;;2.42;1.80;;;35.60;37.60;;;;;;5013959;28;20021;-83
2021/08/03 11:12:44;;;;;;;4.03;1.63;;;35.80;39.10;;;;;;5031884;28;20108;-83
2021/08/03 11:15:22;;;;;;;2.25;2.05;;;35.80;37.50;;;;;;5033406;28;20107;-82
2021/08/03 11:17:57;;;;;;;3.00;1.90;;;35.50;36.70;;;;;;5033729;28;20029;-82
2021/08/03 11:20:39;;;;;;;3.30;1.58;;;35.40;38.80;;;;;;5015914;28;20517;-82
2021/08/03 11:23:15;;;;;;;1.77;1.67;;;35.50;36.80;;;;;;5015689;28;20028;-83
2021/08/03 11:25:44;;;;;;;1.58;1.48;;;35.70;38.40;;;;;;5034024;28;20438;-81
2021/08/03 11:28:21;;;;;;;2.05;1.50;;;36.00;38.60;;;;;;5033598;28;20108;-82
2021/08/03 11:30:49;;;;;;;1.73;1.63;;;36.30;36.80;;;;;;5015981;28;20025;-82
2021/08/03 11:33:17;;;;;;;3.47;1.70;;;36.50;38.40;;;;;;5033534;28;20035;-82
2021/08/03 11:35:43;;;;;;;2.88;1.65;;;36.90;38.10;;;;;;5015840;28;20072;-81
2021/08/03 11:38:11;;;;;;;4.25;2.08;;;37.10;37.60;;;;;;5033891;28;20040;-81
2021/08/03 11:40:43;;;;;;;2.13;1.85;;;37.00;36.90;;;;;;5033496;28;20033;-81
2021/08/03 11:43:08;;;;;;;1.80;1.70;;;36.50;36.30;;;;;;5015693;28;20026;-82
2021/08/03 11:45:36;;;;;;;1.80;1.70;;;36.30;37.80;;;;;;5033484;28;20033;-81
2021/08/03 11:48:14;;;;;;;2.17;1.70;;;36.40;37.80;;;;;;5033328;28;20032;-82
2021/08/03 11:50:40;;;;;;;4.85;1.50;;;36.70;37.70;;;;;;5035198;28;20029;-82
2021/08/03 11:53:07;;;;;;;2.15;1.95;;;36.90;37.50;;;;;;5019585;28;20025;-82
2021/08/03 11:55:51;;;;;;;3.50;1.88;;;37.00;37.20;;;;;;5019688;28;20042;-81
2021/08/03 11:58:18;;;;;;;2.58;1.63;;;37.10;37.40;;;;;;5037355;28;20044;-83
2021/08/03 12:00:44;;;;;;;1.80;1.70;;;37.30;37.30;;;;;;5036967;28;20034;-82
2021/08/03 12:03:10;;;;;;;2.08;1.90;;;37.50;36.80;;;;;;5019829;28;20037;-82
2021/08/03 12:05:38;;;;;;;1.55;1.45;;;37.50;36.10;;;;;;5035969;28;20029;-82
2021/08/03 12:08:13;;;;;;;1.38;1.27;;;37.20;36.00;;;;;;5019352;28;20029;-82
2021/08/03 12:10:44;;;;;;;1.83;1.70;;;36.50;36.00;;;;;;5019732;28;20390;-82
2021/08/03 12:13:12;;;;;;;1.80;1.70;;;35.60;36.60;;;;;;5036829;28;20152;-83
2021/08/03 12:15:53;;;;;;;1.80;1.50;;;34.60;37.10;;;;;;5019280;28;20029;-83
2021/08/03 12:18:20;;;;;;;1.70;1.60;;;33.70;38.60;;;;;;5019642;28;20060;-83
2021/08/03 12:20:58;;;;;;;2.17;1.83;;;33.10;39.30;;;;;;5019462;28;20033;-83
2021/08/03 12:23:27;;;;;;;1.80;1.70;;;33.40;39.70;;;;;;5036935;28;20048;-82
2021/08/03 12:25:55;;;;;;;2.00;1.60;;;33.80;39.80;;;;;;5019010;28;20030;-83
2021/08/03 12:28:39;;;;;;;2.25;1.58;;;34.40;39.60;;;;;;5018950;28;20029;-83
2021/08/03 12:31:37;;;;;;;1.50;1.40;;;35.10;38.20;;;;;;5019505;28;20033;-83
2021/08/03 12:34:17;;;;;;;1.60;1.50;;;35.80;35.60;;;;;;5014482;28;20155;-83
2021/08/03 12:36:55;;;;;;;1.83;1.73;;;36.20;35.20;;;;;;5036970;28;20468;-82
2021/08/03 12:39:24;;;;;;;2.08;1.88;;;36.60;35.00;;;;;;5036772;28;20539;-81
2021/08/03 12:42:23;;;;;;;2.03;1.77;;;36.90;36.50;;;;;;5036629;28;20057;-83
2021/08/03 12:44:54;;;;;;;1.95;1.85;;;37.20;34.60;;;;;;5036800;28;20083;-82
2021/08/03 12:47:32;;;;;;;1.65;1.55;;;37.40;35.30;;;;;;5018859;28;20157;-82
2021/08/03 12:50:07;;;;;;;1.73;1.60;;;37.40;35.50;;;;;;5036208;28;20033;-82
2021/08/03 12:52:33;;;;;;;1.85;1.75;;;36.90;35.50;;;;;;5018772;28;20507;-82
2021/08/03 12:55:01;;;;;;;1.80;1.70;;;36.10;36.20;;;;;;5018235;28;20129;-83
2021/08/03 12:57:54;;;;;;;1.88;1.77;;;35.30;36.40;;;;;;5036310;28;20057;-83
2021/08/03 13:00:36;;;;;;;2.90;2.42;;;34.40;37.10;;;;;;5018687;28;20034;-83
2021/08/03 13:03:24;;;;;;;2.30;2.10;;;34.20;37.50;;;;;;5018237;28;20120;-84